Time;durP1;ratioP1;P1;durP2;ratioP2;P2;SDS_P1;SDS_P2;PMS_P1;PMS_P2;Temp;Humidity;BMP_temperature;BMP_pressure;BME280_temperature;BME280_humidity;BME280_pressure;Samples;Min_cycle;Max_cycle;Signal;HPM_P1;HPM_P2
2022/11/10 00:01:56;;;;;;;;;;;8.50;99.90;;;;;;4981366;28;20023;-87
2022/11/10 00:04:21;;;;;;;;;;;8.50;99.90;;;;;;4981426;28;19929;-86
2022/11/10 00:06:47;;;;;;;;;;;8.50;99.90;;;;;;4997669;28;19933;-87
2022/11/10 00:09:13;;;;;;;;;;;8.60;99.90;;;;;;4996808;28;20023;-87
2022/11/10 00:11:38;;;;;;;;;;;8.60;99.90;;;;;;4997869;28;19932;-87
2022/11/10 00:17:00;;;;;;;;;;;8.50;99.90;;;;;;4995321;28;20251;-87
2022/11/10 00:19:26;;;;;;;;;;;8.50;99.90;;;;;;5014014;28;19926;-86
2022/11/10 00:21:52;;;;;;;;;;;8.40;99.90;;;;;;4997533;28;19933;-86
2022/11/10 00:24:18;;;;;;;;;;;8.50;99.90;;;;;;4997739;28;19925;-87
2022/11/10 00:26:43;;;;;;;;;;;8.40;99.90;;;;;;5013458;28;20505;-87
2022/11/10 00:29:09;;;;;;;;;;;9.10;99.90;;;;;;5017259;28;19932;-87
2022/11/10 00:31:38;;;;;;;;;;;8.40;99.90;;;;;;5016996;28;19956;-87
2022/11/10 00:34:04;;;;;;;;;;;8.30;99.90;;;;;;5016988;28;19925;-87
2022/11/10 00:36:30;;;;;;;;;;;8.30;99.90;;;;;;5016973;28;19948;-87
2022/11/10 00:38:57;;;;;;;;;;;8.30;99.90;;;;;;5034171;28;19925;-87
2022/11/10 00:41:22;;;;;;;;;;;8.30;99.90;;;;;;5000466;28;20012;-87
2022/11/10 00:43:48;;;;;;;;;;;8.30;99.90;;;;;;5016683;28;19972;-87
2022/11/10 00:46:14;;;;;;;;;;;8.30;99.90;;;;;;4984824;28;19929;-87
2022/11/10 00:48:40;;;;;;;;;;;8.30;99.90;;;;;;5016688;28;19979;-87
2022/11/10 00:51:05;;;;;;;;;;;8.30;99.90;;;;;;5000485;28;19925;-87
2022/11/10 00:53:31;;;;;;;;;;;8.20;99.90;;;;;;5000338;28;20040;-87
2022/11/10 00:55:57;;;;;;;;;;;8.20;99.90;;;;;;5000455;28;20369;-87
2022/11/10 00:58:22;;;;;;;;;;;8.20;99.90;;;;;;5000114;28;20012;-87
2022/11/10 01:00:48;;;;;;;;;;;8.20;99.90;;;;;;5016636;28;20317;-87
2022/11/10 01:03:14;;;;;;;;;;;8.20;99.90;;;;;;5033944;28;19932;-86
2022/11/10 01:05:40;;;;;;;;;;;8.10;99.90;;;;;;5000151;28;19979;-86
2022/11/10 01:08:06;;;;;;;;;;;8.10;99.90;;;;;;5016899;28;20015;-87
2022/11/10 01:10:31;;;;;;;;;;;8.10;99.90;;;;;;4999910;28;20019;-86
2022/11/10 01:12:57;;;;;;;;;;;8.20;99.90;;;;;;5034442;28;19932;-87
2022/11/10 01:15:23;;;;;;;;;;;8.20;99.90;;;;;;5016058;28;19925;-87
2022/11/10 01:17:49;;;;;;;;;;;8.10;99.90;;;;;;5000363;28;19925;-87
2022/11/10 01:20:15;;;;;;;;;;;8.30;99.90;;;;;;5002743;28;19975;-87
2022/11/10 01:22:41;;;;;;;;;;;8.10;99.90;;;;;;5020862;28;19929;-86
2022/11/10 01:25:07;;;;;;;;;;;8.20;99.90;;;;;;5020245;28;20289;-87
2022/11/10 01:27:32;;;;;;;;;;;8.20;99.90;;;;;;5020108;28;19947;-87
2022/11/10 01:29:59;;;;;;;;;;;8.20;99.90;;;;;;5004108;28;19979;-87
2022/11/10 01:32:25;;;;;;;;;;;8.20;99.90;;;;;;5020942;28;19932;-87
2022/11/10 01:34:51;;;;;;;;;;;8.30;99.90;;;;;;5021199;28;20289;-87
2022/11/10 01:37:16;;;;;;;;;;;8.30;99.90;;;;;;5037738;28;20280;-87
2022/11/10 01:39:42;;;;;;;;;;;8.30;99.90;;;;;;4987440;28;20029;-87
2022/11/10 01:42:07;;;;;;;;;;;8.30;99.90;;;;;;5003872;28;19972;-87
2022/11/10 01:44:33;;;;;;;;;;;8.30;99.90;;;;;;5004038;28;19986;-87
2022/11/10 01:46:59;;;;;;;;;;;8.30;99.90;;;;;;5003556;28;19948;-87
2022/11/10 01:49:25;;;;;;;;;;;8.50;99.90;;;;;;5004423;28;20023;-87
2022/11/10 01:51:57;;;;;;;;;;;8.20;99.90;;;;;;5019916;28;20023;-87
2022/11/10 01:54:28;;;;;;;;;;;8.20;99.90;;;;;;5004247;28;20238;-87
2022/11/10 01:56:56;;;;;;;;;;;8.20;99.90;;;;;;5020305;28;19925;-87
2022/11/10 01:59:24;;;;;;;;;;;8.20;99.90;;;;;;5003296;28;20267;-87
2022/11/10 02:01:52;;;;;;;;;;;8.20;99.90;;;;;;5019813;28;19948;-87
2022/11/10 02:04:19;;;;;;;;;;;8.20;99.90;;;;;;5020497;28;19929;-87
2022/11/10 02:06:46;;;;;;;;;;;8.20;99.90;;;;;;5020555;28;20269;-87
2022/11/10 02:09:11;;;;;;;;;;;8.10;99.90;;;;;;5019516;28;19929;-88
2022/11/10 02:17:11;;;;;;;;;;;8.10;99.90;;;;;;4481183;22;20198;-89
2022/11/10 02:19:43;;;;;;;;;;;8.10;99.90;;;;;;4979854;28;19933;-89
2022/11/10 02:22:08;;;;;;;;;;;8.20;99.90;;;;;;4980269;28;19925;-85
2022/11/10 02:24:34;;;;;;;;;;;8.10;99.90;;;;;;4997773;28;19996;-85
2022/11/10 02:27:01;;;;;;;;;;;8.30;99.90;;;;;;4982586;28;19975;-85
2022/11/10 02:29:26;;;;;;;;;;;8.20;99.90;;;;;;4999062;28;19925;-85
2022/11/10 02:31:52;;;;;;;;;;;8.10;99.90;;;;;;4981540;28;19976;-85
2022/11/10 02:34:18;;;;;;;;;;;8.10;99.90;;;;;;4982868;28;19933;-85
2022/11/10 02:36:43;;;;;;;;;;;8.10;99.90;;;;;;4999096;28;20266;-85
2022/11/10 02:39:09;;;;;;;;;;;8.10;99.90;;;;;;4982269;28;19925;-85
2022/11/10 02:41:34;;;;;;;;;;;8.30;99.90;;;;;;4999333;28;19929;-85
2022/11/10 02:44:01;;;;;;;;;;;8.20;99.90;;;;;;5015736;28;20306;-86
2022/11/10 02:46:27;;;;;;;;;;;8.20;99.90;;;;;;4998558;28;19925;-85
2022/11/10 02:48:52;;;;;;;;;;;8.20;99.90;;;;;;4982520;28;20347;-86
2022/11/10 02:51:18;;;;;;;;;;;8.20;99.90;;;;;;4983173;28;19945;-85
2022/11/10 02:53:44;;;;;;;;;;;9.60;99.90;;;;;;5015808;28;19973;-85
2022/11/10 02:56:09;;;;;;;;;;;8.10;99.90;;;;;;4998526;28;19977;-85
2022/11/10 02:58:35;;;;;;;;;;;9.20;99.90;;;;;;4998789;28;19969;-85
2022/11/10 03:01:03;;;;;;;;;;;8.10;99.90;;;;;;4982211;28;19997;-85
2022/11/10 03:03:28;;;;;;;;;;;9.80;99.90;;;;;;4999008;28;19925;-85
2022/11/10 03:05:54;;;;;;;;;;;8.10;99.90;;;;;;4998804;28;19952;-86
2022/11/10 03:08:19;;;;;;;;;;;9.70;99.90;;;;;;4998302;28;19929;-85
2022/11/10 03:10:45;;;;;;;;;;;9.90;99.90;;;;;;4997846;28;19925;-85
2022/11/10 03:13:11;;;;;;;;;;;8.10;99.90;;;;;;4997070;28;19926;-85
2022/11/10 03:15:36;;;;;;;;;;;8.10;99.90;;;;;;4997812;28;20399;-85
2022/11/10 03:18:03;;;;;;;;;;;8.20;99.90;;;;;;4982997;28;19925;-85
2022/11/10 03:20:28;;;;;;;;;;;8.20;99.90;;;;;;5014878;28;20318;-85
2022/11/10 03:22:59;;;;;;;;;;;8.20;99.90;;;;;;5015350;28;20027;-85
2022/11/10 03:25:24;;;;;;;;;;;8.20;99.90;;;;;;4981540;28;19992;-85
2022/11/10 03:27:50;;;;;;;;;;;10.00;99.90;;;;;;4998248;28;19973;-85
2022/11/10 03:30:15;;;;;;;;;;;9.70;99.90;;;;;;4997807;28;19988;-85
2022/11/10 03:32:41;;;;;;;;;;;8.20;99.90;;;;;;4997867;28;20008;-85
2022/11/10 03:35:07;;;;;;;;;;;10.20;99.90;;;;;;4981537;28;20336;-85
2022/11/10 03:37:32;;;;;;;;;;;8.20;99.90;;;;;;4997574;28;19933;-86
2022/11/10 03:39:58;;;;;;;;;;;9.40;99.90;;;;;;5015256;28;19932;-85
2022/11/10 03:42:24;;;;;;;;;;;9.70;99.90;;;;;;4997945;28;20269;-85
2022/11/10 03:44:49;;;;;;;;;;;8.20;99.90;;;;;;4997621;28;19948;-85
2022/11/10 03:47:18;;;;;;;;;;;8.30;99.90;;;;;;5013607;28;19925;-85
2022/11/10 03:49:43;;;;;;;;;;;8.20;99.90;;;;;;4997579;28;20369;-85
2022/11/10 03:52:09;;;;;;;;;;;8.20;99.90;;;;;;4981966;28;19933;-84
2022/11/10 03:54:34;;;;;;;;;;;8.10;99.90;;;;;;4997477;28;19980;-85
2022/11/10 03:57:00;;;;;;;;;;;6.40;99.90;;;;;;4997348;28;19933;-85
2022/11/10 03:59:26;;;;;;;;;;;8.10;99.90;;;;;;4997047;28;20068;-85
2022/11/10 04:01:51;;;;;;;;;;;8.80;99.90;;;;;;4997003;28;19926;-85
2022/11/10 04:09:45;;;;;;;;;;;8.00;99.90;;;;;;4997637;28;19932;-85
2022/11/10 04:17:39;;;;;;;;;;;8.00;99.90;;;;;;4998789;28;19932;-85
2022/11/10 04:20:05;;;;;;;;;;;7.30;99.90;;;;;;5016536;28;19929;-86
2022/11/10 04:25:15;;;;;;;;;;;7.90;99.90;;;;;;5016666;28;19990;-85
2022/11/10 04:27:40;;;;;;;;;;;8.50;99.90;;;;;;5016632;28;19925;-85
2022/11/10 04:30:06;;;;;;;;;;;7.90;99.90;;;;;;5016518;28;20360;-86
2022/11/10 04:32:32;;;;;;;;;;;8.00;99.90;;;;;;5016453;28;19925;-85
2022/11/10 04:34:57;;;;;;;;;;;8.10;99.90;;;;;;5016628;28;19925;-85
2022/11/10 04:37:23;;;;;;;;;;;8.10;99.90;;;;;;5000316;28;20348;-85
2022/11/10 04:39:49;;;;;;;;;;;8.10;99.90;;;;;;4999798;28;20438;-85
2022/11/10 04:42:15;;;;;;;;;;;8.90;99.90;;;;;;4999959;28;19988;-86
2022/11/10 04:44:40;;;;;;;;;;;8.30;99.90;;;;;;5000068;28;20340;-85
2022/11/10 04:47:06;;;;;;;;;;;8.90;99.90;;;;;;4999869;28;19929;-85
2022/11/10 04:49:31;;;;;;;;;;;8.30;99.90;;;;;;5016490;28;19933;-85
2022/11/10 04:51:57;;;;;;;;;;;8.80;99.90;;;;;;4999854;28;20011;-85
2022/11/10 04:54:22;;;;;;;;;;;8.40;99.90;;;;;;4983049;28;19979;-86
2022/11/10 04:56:48;;;;;;;;;;;8.40;99.90;;;;;;5016082;28;19932;-85
2022/11/10 04:59:13;;;;;;;;;;;8.90;99.90;;;;;;5016124;28;20311;-85
2022/11/10 05:01:39;;;;;;;;;;;8.80;99.90;;;;;;5016221;28;19929;-85
2022/11/10 05:04:05;;;;;;;;;;;9.70;99.90;;;;;;5016885;28;20008;-85
2022/11/10 05:06:30;;;;;;;;;;;8.50;99.90;;;;;;5034002;28;19925;-86
2022/11/10 05:08:56;;;;;;;;;;;8.80;99.90;;;;;;5000433;28;20275;-85
2022/11/10 05:11:21;;;;;;;;;;;8.50;99.90;;;;;;5016586;28;19926;-86
2022/11/10 05:13:48;;;;;;;;;;;9.00;99.90;;;;;;4984230;28;20272;-86
2022/11/10 05:16:14;;;;;;;;;;;9.30;99.90;;;;;;5016605;28;20310;-86
2022/11/10 05:18:41;;;;;;;;;;;8.60;99.90;;;;;;5024049;28;20199;-84
2022/11/10 05:21:07;;;;;;;;;;;8.60;99.90;;;;;;5039854;28;19913;-85
2022/11/10 05:23:39;;;;;;;;;;;8.60;99.90;;;;;;5039783;28;19981;-84
2022/11/10 05:26:06;;;;;;;;;;;8.60;99.90;;;;;;5040044;28;19936;-86
2022/11/10 05:28:32;;;;;;;;;;;8.60;99.90;;;;;;5037749;28;19953;-85
2022/11/10 05:30:58;;;;;;;;;;;8.80;99.90;;;;;;5038440;28;19924;-85
2022/11/10 05:33:23;;;;;;;;;;;8.60;99.90;;;;;;5037424;28;19925;-84
2022/11/10 05:35:49;;;;;;;;;;;8.60;99.90;;;;;;5037857;28;20009;-85
2022/11/10 05:38:15;;;;;;;;;;;8.60;99.90;;;;;;5035020;28;20023;-85
2022/11/10 05:40:40;;;;;;;;;;;9.10;99.90;;;;;;5002484;28;19992;-85
2022/11/10 05:43:06;;;;;;;;;;;9.80;99.90;;;;;;5001908;28;20261;-85
2022/11/10 05:45:32;;;;;;;;;;;8.70;99.90;;;;;;5017397;28;19987;-85
2022/11/10 05:47:57;;;;;;;;;;;8.70;99.90;;;;;;5018378;28;20297;-85
2022/11/10 05:50:23;;;;;;;;;;;10.00;99.90;;;;;;5020837;28;19983;-84
2022/11/10 05:52:50;;;;;;;;;;;8.70;99.90;;;;;;5039202;28;19913;-83
2022/11/10 05:55:17;;;;;;;;;;;8.70;99.90;;;;;;5038896;28;19945;-84
2022/11/10 05:57:43;;;;;;;;;;;9.60;99.90;;;;;;5038625;28;19992;-86
2022/11/10 06:00:09;;;;;;;;;;;8.60;99.90;;;;;;5034156;28;19936;-86
2022/11/10 06:02:34;;;;;;;;;;;8.60;99.90;;;;;;5038322;28;19925;-84
2022/11/10 06:05:00;;;;;;;;;;;8.70;99.90;;;;;;5023228;28;19912;-84
2022/11/10 06:07:26;;;;;;;;;;;8.70;99.90;;;;;;5027089;28;19925;-85
2022/11/10 06:09:51;;;;;;;;;;;10.10;99.90;;;;;;5019377;28;20349;-85
2022/11/10 06:12:17;;;;;;;;;;;8.70;99.90;;;;;;5019596;28;19929;-85
2022/11/10 06:14:42;;;;;;;;;;;8.70;99.90;;;;;;5019628;28;19925;-85
2022/11/10 06:17:08;;;;;;;;;;;8.70;99.90;;;;;;5020221;28;19925;-85
2022/11/10 06:19:33;;;;;;;;;;;9.30;99.90;;;;;;4971728;28;19930;-86
2022/11/10 06:21:59;;;;;;;;;;;8.80;99.90;;;;;;5000641;28;20373;-86
2022/11/10 06:24:25;;;;;;;;;;;8.90;99.90;;;;;;4983669;28;19981;-86
2022/11/10 06:26:50;;;;;;;;;;;8.80;99.90;;;;;;5017371;28;20049;-86
2022/11/10 06:29:16;;;;;;;;;;;9.40;99.90;;;;;;5000202;28;19925;-85
2022/11/10 06:31:41;;;;;;;;;;;9.60;99.90;;;;;;4999638;28;19925;-85
2022/11/10 06:34:07;;;;;;;;;;;9.00;99.90;;;;;;5017231;28;20016;-85
2022/11/10 06:36:33;;;;;;;;;;;8.80;99.90;;;;;;5000089;28;19933;-85
2022/11/10 06:38:58;;;;;;;;;;;8.80;99.90;;;;;;5000307;28;19933;-85
2022/11/10 06:41:24;;;;;;;;;;;8.80;99.90;;;;;;5000103;28;20288;-85
2022/11/10 06:43:49;;;;;;;;;;;8.80;99.90;;;;;;4999306;28;19925;-86
2022/11/10 06:46:15;;;;;;;;;;;8.80;99.90;;;;;;5000693;28;19932;-88
2022/11/10 06:48:40;;;;;;;;;;;9.30;99.90;;;;;;4983060;28;20012;-86
2022/11/10 06:51:06;;;;;;;;;;;8.80;99.90;;;;;;4982927;28;19949;-87
2022/11/10 06:53:32;;;;;;;;;;;8.80;99.90;;;;;;4999004;28;19980;-87
2022/11/10 06:55:57;;;;;;;;;;;8.90;99.90;;;;;;4999036;28;20395;-86
2022/11/10 06:58:23;;;;;;;;;;;8.90;99.90;;;;;;4999514;28;19926;-87
2022/11/10 07:00:48;;;;;;;;;;;8.90;99.90;;;;;;4999920;28;20033;-87
2022/11/10 07:03:14;;;;;;;;;;;8.90;99.90;;;;;;4983516;28;19996;-86
2022/11/10 07:05:40;;;;;;;;;;;8.90;99.90;;;;;;4999715;28;20004;-87
2022/11/10 07:08:08;;;;;;;;;;;8.90;99.90;;;;;;4999340;28;20345;-86
2022/11/10 07:10:34;;;;;;;;;;;8.90;99.90;;;;;;4998323;28;19926;-86
2022/11/10 07:13:01;;;;;;;;;;;8.90;99.90;;;;;;4998166;28;20317;-86
2022/11/10 07:15:27;;;;;;;;;;;9.40;99.90;;;;;;4998737;28;20380;-87
2022/11/10 07:17:52;;;;;;;;;;;8.90;99.90;;;;;;4998368;28;19925;-86
2022/11/10 07:20:18;;;;;;;;;;;9.00;99.90;;;;;;4984794;28;20075;-85
2022/11/10 07:22:44;;;;;;;;;;;9.00;99.90;;;;;;5017401;28;19983;-86
2022/11/10 07:25:10;;;;;;;;;;;9.00;99.90;;;;;;5001332;28;19932;-86
2022/11/10 07:27:35;;;;;;;;;;;9.00;99.90;;;;;;5018126;28;20249;-87
2022/11/10 07:30:02;;;;;;;;;;;9.80;99.90;;;;;;5001476;28;19925;-88
2022/11/10 07:32:28;;;;;;;;;;;9.00;99.90;;;;;;5017454;28;19925;-89
2022/11/10 07:34:53;;;;;;;;;;;9.00;99.90;;;;;;5001410;28;19980;-87
2022/11/10 07:37:19;;;;;;;;;;;9.00;99.90;;;;;;5017203;28;19925;-87
2022/11/10 07:39:44;;;;;;;;;;;8.90;99.90;;;;;;5016749;28;19929;-86
2022/11/10 07:42:10;;;;;;;;;;;8.90;99.90;;;;;;5017350;28;19932;-86
2022/11/10 07:44:35;;;;;;;;;;;9.30;99.90;;;;;;5016477;28;19976;-88
2022/11/10 07:47:01;;;;;;;;;;;8.80;99.90;;;;;;5000872;28;19943;-88
2022/11/10 07:49:27;;;;;;;;;;;8.80;99.90;;;;;;5016820;28;19947;-88
2022/11/10 07:51:52;;;;;;;;;;;8.80;99.90;;;;;;5017047;28;19932;-88
2022/11/10 07:54:18;;;;;;;;;;;8.80;99.90;;;;;;5000502;28;20031;-87
2022/11/10 07:56:44;;;;;;;;;;;8.80;99.90;;;;;;5000654;28;19925;-88
2022/11/10 07:59:09;;;;;;;;;;;9.00;99.90;;;;;;5016676;28;19925;-88
2022/11/10 08:01:41;;;;;;;;;;;8.90;99.90;;;;;;5016527;28;19936;-87
2022/11/10 08:04:06;;;;;;;;;;;8.80;99.90;;;;;;5017159;28;19926;-87
2022/11/10 08:06:32;;;;;;;;;;;8.80;99.90;;;;;;5000344;28;19925;-86
2022/11/10 08:08:57;;;;;;;;;;;8.70;99.90;;;;;;5000887;28;19925;-88
2022/11/10 08:11:23;;;;;;;;;;;8.70;99.90;;;;;;5000305;28;19925;-88
2022/11/10 08:13:49;;;;;;;;;;;9.50;99.90;;;;;;5000206;28;19928;-88
2022/11/10 08:16:14;;;;;;;;;;;10.30;99.90;;;;;;5016414;28;20395;-87
2022/11/10 08:18:40;;;;;;;;;;;9.00;99.90;;;;;;4996862;28;19925;-88
2022/11/10 08:21:06;;;;;;;;;;;8.90;99.90;;;;;;5005114;28;19926;-88
2022/11/10 08:23:32;;;;;;;;;;;8.90;99.90;;;;;;5018293;28;19958;-87
2022/11/10 08:25:58;;;;;;;;;;;9.00;99.90;;;;;;5015297;28;20020;-88
2022/11/10 08:28:25;;;;;;;;;;;9.10;99.90;;;;;;5013385;28;19925;-88
2022/11/10 08:43:13;;;;;;;;;;;9.50;99.90;;;;;;5191739;22;19932;-90
2022/11/10 08:45:39;;;;;;;;;;;9.50;99.90;;;;;;5003076;28;20288;-89
2022/11/10 08:48:06;;;;;;;;;;;9.60;99.90;;;;;;5035076;28;19935;-90
2022/11/10 08:50:32;;;;;;;;;;;9.70;99.90;;;;;;5036308;28;19975;-89
2022/11/10 08:53:02;;;;;;;;;;;9.00;99.90;;;;;;5020469;28;19975;-89
2022/11/10 08:55:28;;;;;;;;;;;9.70;99.90;;;;;;5020063;28;19924;-88
2022/11/10 08:57:57;;;;;;;;;;;9.70;99.90;;;;;;5036931;28;20011;-90
2022/11/10 09:00:22;;;;;;;;;;;9.90;99.90;;;;;;5037228;28;20295;-90
2022/11/10 09:02:48;;;;;;;;;;;10.00;99.90;;;;;;5020800;28;19932;-88
2022/11/10 09:05:13;;;;;;;;;;;9.80;99.90;;;;;;5019991;28;19998;-89
2022/11/10 09:07:46;;;;;;;;;;;9.80;99.90;;;;;;5020912;28;19925;-89
2022/11/10 09:10:12;;;;;;;;;;;9.80;99.90;;;;;;5019588;28;19924;-88
2022/11/10 09:12:39;;;;;;;;;;;11.80;99.90;;;;;;5020137;28;20058;-91
2022/11/10 09:15:05;;;;;;;;;;;11.40;99.90;;;;;;5003822;28;19931;-89
2022/11/10 09:17:31;;;;;;;;;;;10.00;99.90;;;;;;5019996;28;20418;-91
2022/11/10 09:19:57;;;;;;;;;;;10.20;99.90;;;;;;5021157;28;19925;-90
2022/11/10 09:22:22;;;;;;;;;;;10.30;99.90;;;;;;5020079;28;19929;-90
2022/11/10 09:24:48;;;;;;;;;;;10.30;99.90;;;;;;5020971;28;19932;-90
2022/11/10 09:27:14;;;;;;;;;;;10.30;99.90;;;;;;5020719;28;20011;-90
2022/11/10 09:29:39;;;;;;;;;;;10.50;99.90;;;;;;5021042;28;19925;-91
2022/11/10 09:32:05;;;;;;;;;;;10.50;99.90;;;;;;5019904;28;19925;-90
2022/11/10 09:34:33;;;;;;;;;;;10.60;99.90;;;;;;5020232;28;19932;-90
2022/11/10 09:36:59;;;;;;;;;;;11.80;99.90;;;;;;5037528;28;19925;-91
2022/11/10 09:39:24;;;;;;;;;;;11.00;99.90;;;;;;5021248;28;19925;-91
2022/11/10 09:41:52;;;;;;;;;;;11.00;99.90;;;;;;5039832;28;20016;-90
2022/11/10 09:47:13;;;;;;;;;;;10.90;99.90;;;;;;5069190;28;19924;-93
2022/11/10 09:49:45;;;;;;;;;;;11.10;99.90;;;;;;5050962;28;19936;-94
2022/11/10 09:52:11;;;;;;;;;;;11.20;99.90;;;;;;5030484;28;19932;-93
2022/11/10 09:54:55;;;;;;;;;;;11.20;99.90;;;;;;5033071;28;19924;-91
2022/11/10 09:57:23;;;;;;;;;;;11.20;99.90;;;;;;5038170;28;19933;-92
2022/11/10 09:59:49;;;;;;;;;;;11.10;99.90;;;;;;5027767;28;19936;-93
2022/11/10 10:02:33;;;;;;;;;;;11.30;99.90;;;;;;5039690;28;19925;-93
2022/11/10 10:05:02;;;;;;;;;;;11.30;99.90;;;;;;5033591;28;19929;-95
2022/11/10 10:07:34;;;;;;;;;;;11.30;99.90;;;;;;5044613;28;19925;-92
2022/11/10 10:10:19;;;;;;;;;;;11.30;99.90;;;;;;5040859;28;19939;-93
2022/11/10 10:12:51;;;;;;;;;;;11.30;99.90;;;;;;5033118;28;19928;-93
2022/11/10 10:15:28;;;;;;;;;;;11.30;99.90;;;;;;5031187;28;19925;-95
2022/11/10 10:17:54;;;;;;;;;;;11.40;99.90;;;;;;5050046;28;19988;-90
2022/11/10 10:20:46;;;;;;;;;;;11.40;99.90;;;;;;5046280;28;19947;-94
2022/11/10 10:23:12;;;;;;;;;;;11.50;99.90;;;;;;5030469;28;19929;-93
2022/11/10 10:25:38;;;;;;;;;;;11.60;99.90;;;;;;5030006;28;19956;-91
2022/11/10 10:28:04;;;;;;;;;;;11.80;99.90;;;;;;5028839;28;19925;-91
2022/11/10 10:30:29;;;;;;;;;;;11.80;99.90;;;;;;5026761;28;19998;-92
2022/11/10 10:33:24;;;;;;;;;;;11.80;99.90;;;;;;5015822;28;19940;-93
2022/11/10 10:35:50;;;;;;;;;;;11.90;99.90;;;;;;5013638;28;19980;-93
2022/11/10 10:38:22;;;;;;;;;;;11.80;99.90;;;;;;5038582;28;19933;-92
2022/11/10 10:40:49;;;;;;;;;;;11.80;99.90;;;;;;5041162;28;19956;-92
2022/11/10 10:43:14;;;;;;;;;;;11.80;99.90;;;;;;5048902;28;20367;-92
2022/11/10 10:45:41;;;;;;;;;;;11.80;99.90;;;;;;5032260;28;19936;-91
2022/11/10 10:48:27;;;;;;;;;;;11.80;99.90;;;;;;5033507;28;20024;-91
2022/11/10 10:50:52;;;;;;;;;;;11.70;99.90;;;;;;5036117;28;19984;-93
2022/11/10 10:53:22;;;;;;;;;;;11.70;99.90;;;;;;5031663;28;19924;-91
2022/11/10 10:55:52;;;;;;;;;;;11.80;99.90;;;;;;5045615;28;19984;-93
2022/11/10 10:58:18;;;;;;;;;;;11.80;99.90;;;;;;5049810;28;20303;-93
2022/11/10 11:00:44;;;;;;;;;;;11.90;99.90;;;;;;5034844;28;19929;-92
2022/11/10 11:03:12;;;;;;;;;;;11.90;99.90;;;;;;5028665;28;19932;-91
2022/11/10 11:05:38;;;;;;;;;;;10.80;99.90;;;;;;5054697;28;19939;-91
2022/11/10 11:08:04;;;;;;;;;;;12.10;99.90;;;;;;4996367;28;19933;-91
2022/11/10 11:10:31;;;;;;;;;;;12.90;99.90;;;;;;5024501;28;19971;-91
2022/11/10 11:13:13;;;;;;;;;;;12.00;99.90;;;;;;5031190;28;19935;-92
2022/11/10 11:15:39;;;;;;;;;;;12.10;99.90;;;;;;5030495;28;20001;-92
2022/11/10 11:18:24;;;;;;;;;;;12.10;99.90;;;;;;5011761;28;19925;-93
2022/11/10 11:21:00;;;;;;;;;;;12.20;99.90;;;;;;5020168;28;20003;-92
2022/11/10 11:23:29;;;;;;;;;;;12.10;99.90;;;;;;5028888;28;19998;-93
2022/11/10 11:25:56;;;;;;;;;;;12.20;99.90;;;;;;5028384;28;19935;-92
2022/11/10 11:28:35;;;;;;;;;;;12.20;99.90;;;;;;5034971;28;19936;-92
2022/11/10 11:31:01;;;;;;;;;;;12.20;99.90;;;;;;5032215;28;19924;-93
2022/11/10 11:33:46;;;;;;;;;;;12.30;99.90;;;;;;5042043;28;20968;-92
2022/11/10 11:36:14;;;;;;;;;;;12.40;99.90;;;;;;5039954;28;20012;-91
2022/11/10 11:38:49;;;;;;;;;;;12.30;99.90;;;;;;5027355;28;19987;-93
2022/11/10 11:41:40;;;;;;;;;;;12.40;99.90;;;;;;5032570;28;20012;-92
2022/11/10 11:44:15;;;;;;;;;;;12.90;99.90;;;;;;5021528;28;20007;-93
2022/11/10 11:46:43;;;;;;;;;;;12.50;99.90;;;;;;5008674;28;19939;-92
2022/11/10 11:49:18;;;;;;;;;;;12.50;99.90;;;;;;5018291;28;19980;-93
2022/11/10 11:52:02;;;;;;;;;;;12.60;99.90;;;;;;5027893;28;19924;-91
2022/11/10 11:54:40;;;;;;;;;;;12.70;99.90;;;;;;5058180;28;19924;-92
2022/11/10 11:57:16;;;;;;;;;;;12.70;99.90;;;;;;5026693;28;19925;-94
2022/11/10 11:59:49;;;;;;;;;;;12.70;99.90;;;;;;5025275;28;19940;-93
2022/11/10 12:02:17;;;;;;;;;;;13.50;99.90;;;;;;5026520;28;20090;-94
2022/11/10 12:05:01;;;;;;;;;;;12.70;99.90;;;;;;5028625;28;19930;-92
2022/11/10 12:07:30;;;;;;;;;;;12.80;99.90;;;;;;5023157;28;20055;-93
2022/11/10 12:10:01;;;;;;;;;;;12.80;99.90;;;;;;5026870;28;19981;-92
2022/11/10 12:12:56;;;;;;;;;;;12.80;99.90;;;;;;5028235;28;19966;-91
2022/11/10 12:15:25;;;;;;;;;;;12.80;99.90;;;;;;5009693;28;19984;-90
2022/11/10 12:17:51;;;;;;;;;;;12.80;99.90;;;;;;5023469;28;19932;-93
2022/11/10 12:20:20;;;;;;;;;;;12.90;99.90;;;;;;5030483;28;19925;-90
2022/11/10 12:22:46;;;;;;;;;;;12.90;99.90;;;;;;5045378;28;19988;-91
2022/11/10 12:25:28;;;;;;;;;;;12.90;99.90;;;;;;5025195;28;19952;-92
2022/11/10 12:28:10;;;;;;;;;;;12.60;99.90;;;;;;5022999;28;19925;-90
2022/11/10 12:30:36;;;;;;;;;;;12.80;99.90;;;;;;5022717;28;19956;-92
2022/11/10 12:33:21;;;;;;;;;;;12.90;99.90;;;;;;5012695;28;19968;-92
2022/11/10 12:35:47;;;;;;;;;;;14.00;99.90;;;;;;5045107;28;20024;-91
2022/11/10 12:38:15;;;;;;;;;;;11.90;99.90;;;;;;5028653;28;19932;-92
2022/11/10 12:40:56;;;;;;;;;;;12.90;99.90;;;;;;5029272;28;20007;-91
2022/11/10 12:43:32;;;;;;;;;;;12.80;99.90;;;;;;5026048;28;19928;-92
2022/11/10 12:46:00;;;;;;;;;;;13.80;99.90;;;;;;5027233;28;19932;-90
2022/11/10 12:48:32;;;;;;;;;;;13.60;99.90;;;;;;5029619;28;19984;-93
2022/11/10 12:51:04;;;;;;;;;;;12.60;99.90;;;;;;5028615;28;20374;-92
2022/11/10 12:53:31;;;;;;;;;;;11.60;99.90;;;;;;5029981;28;19925;-91
2022/11/10 12:56:00;;;;;;;;;;;12.00;99.90;;;;;;5029645;28;19929;-90
2022/11/10 12:58:26;;;;;;;;;;;12.70;99.90;;;;;;5028440;28;19924;-93
2022/11/10 13:00:58;;;;;;;;;;;12.30;99.90;;;;;;5029258;28;20385;-91
2022/11/10 13:03:37;;;;;;;;;;;11.90;99.90;;;;;;5026144;28;19925;-92
2022/11/10 13:06:21;;;;;;;;;;;12.50;99.90;;;;;;5028660;28;19924;-90
2022/11/10 13:08:50;;;;;;;;;;;12.60;99.90;;;;;;5026039;28;19945;-91
2022/11/10 13:11:25;;;;;;;;;;;12.70;99.90;;;;;;5032262;28;19936;-92
2022/11/10 13:13:52;;;;;;;;;;;12.70;99.90;;;;;;5035411;28;19925;-91
2022/11/10 13:16:36;;;;;;;;;;;12.60;99.90;;;;;;5035160;28;19925;-91
2022/11/10 13:19:02;;;;;;;;;;;12.70;99.90;;;;;;5029404;28;19929;-91
2022/11/10 13:21:47;;;;;;;;;;;12.80;99.90;;;;;;5030912;28;19929;-92
2022/11/10 13:24:18;;;;;;;;;;;12.90;99.90;;;;;;5030761;28;19936;-91
2022/11/10 13:26:44;;;;;;;;;;;12.90;99.90;;;;;;5032650;28;19929;-93
2022/11/10 13:29:26;;;;;;;;;;;13.00;99.90;;;;;;5028514;28;19940;-94
2022/11/10 13:31:53;;;;;;;;;;;13.00;99.90;;;;;;5035388;28;19929;-92
2022/11/10 13:34:19;;;;;;;;;;;13.00;99.90;;;;;;5030230;28;19931;-93
2022/11/10 13:36:46;;;;;;;;;;;13.00;99.90;;;;;;5026968;28;19987;-90
2022/11/10 13:39:15;;;;;;;;;;;13.00;99.90;;;;;;5016901;28;20256;-93
2022/11/10 13:41:48;;;;;;;;;;;13.00;99.90;;;;;;5034941;28;19935;-92
2022/11/10 13:44:28;;;;;;;;;;;13.00;99.90;;;;;;5028052;28;19925;-92
2022/11/10 13:47:06;;;;;;;;;;;11.80;99.90;;;;;;5026846;28;19925;-92
2022/11/10 13:49:34;;;;;;;;;;;13.00;99.90;;;;;;5038132;28;19984;-92
2022/11/10 13:52:14;;;;;;;;;;;13.00;99.90;;;;;;5032759;28;19979;-93
2022/11/10 13:54:58;;;;;;;;;;;13.00;99.90;;;;;;5016227;28;20242;-92
2022/11/10 13:57:24;;;;;;;;;;;12.90;99.90;;;;;;5011553;28;19926;-92
2022/11/10 13:59:51;;;;;;;;;;;12.20;99.90;;;;;;5026777;28;19929;-93
2022/11/10 14:02:32;;;;;;;;;;;12.90;99.90;;;;;;5026936;28;20335;-91
2022/11/10 14:05:05;;;;;;;;;;;13.00;99.90;;;;;;5026913;28;19928;-91
2022/11/10 14:07:37;;;;;;;;;;;13.00;99.90;;;;;;5022782;28;20292;-92
2022/11/10 14:10:04;;;;;;;;;;;11.80;99.90;;;;;;5034686;28;19936;-92
2022/11/10 14:12:30;;;;;;;;;;;13.00;99.90;;;;;;5011862;28;19956;-93
2022/11/10 14:15:00;;;;;;;;;;;13.00;99.90;;;;;;5032931;28;19928;-92
2022/11/10 14:17:28;;;;;;;;;;;13.00;99.90;;;;;;5020875;28;19988;-92
2022/11/10 14:19:54;;;;;;;;;;;12.90;99.90;;;;;;5028656;28;20533;-92
2022/11/10 14:22:26;;;;;;;;;;;12.90;99.90;;;;;;5022679;28;19925;-91
2022/11/10 14:25:24;;;;;;;;;;;12.90;99.90;;;;;;5030373;28;19964;-91
2022/11/10 14:27:50;;;;;;;;;;;13.00;99.90;;;;;;4988636;28;19989;-90
2022/11/10 14:30:25;;;;;;;;;;;11.90;99.90;;;;;;5024528;28;19925;-92
2022/11/10 14:33:07;;;;;;;;;;;13.00;99.90;;;;;;5026061;28;19988;-92
2022/11/10 14:35:53;;;;;;;;;;;13.10;99.90;;;;;;5016433;28;19944;-91
2022/11/10 14:38:23;;;;;;;;;;;13.00;99.90;;;;;;4999577;28;19933;-91
2022/11/10 14:40:50;;;;;;;;;;;13.00;99.90;;;;;;5044582;28;19932;-93
2022/11/10 14:43:29;;;;;;;;;;;13.00;99.90;;;;;;5028898;28;19967;-92
2022/11/10 14:45:55;;;;;;;;;;;13.10;99.90;;;;;;5026055;28;19933;-92
2022/11/10 14:48:22;;;;;;;;;;;13.00;99.90;;;;;;5013160;28;19943;-92
2022/11/10 14:50:48;;;;;;;;;;;13.00;99.90;;;;;;5028829;28;19937;-93
2022/11/10 14:53:32;;;;;;;;;;;12.90;99.90;;;;;;5025006;28;19936;-92
2022/11/10 14:56:01;;;;;;;;;;;12.90;99.90;;;;;;5030536;28;19929;-93
2022/11/10 14:58:34;;;;;;;;;;;12.90;99.90;;;;;;5023310;28;19995;-93
2022/11/10 15:01:03;;;;;;;;;;;12.90;99.90;;;;;;5024739;28;19925;-93
2022/11/10 15:03:32;;;;;;;;;;;12.90;99.90;;;;;;5023773;28;19935;-91
2022/11/10 15:05:58;;;;;;;;;;;12.80;99.90;;;;;;5032521;28;19921;-89
2022/11/10 15:08:24;;;;;;;;;;;12.90;99.90;;;;;;5017695;28;19921;-91